sensor_id;sensor_type;location;lat;lon;timestamp;temperature;humidity
9371;DHT22;4725;48.384;8.984;2022-08-20T00:00:14;16.20;99.90
9371;DHT22;4725;48.384;8.984;2022-08-20T00:02:43;16.10;99.90
9371;DHT22;4725;48.384;8.984;2022-08-20T00:05:11;16.10;99.90
9371;DHT22;4725;48.384;8.984;2022-08-20T00:07:40;16.10;99.90
9371;DHT22;4725;48.384;8.984;2022-08-20T00:10:08;16.10;99.90
9371;DHT22;4725;48.384;8.984;2022-08-20T00:12:36;16.10;99.90
9371;DHT22;4725;48.384;8.984;2022-08-20T00:15:08;16.10;99.90
9371;DHT22;4725;48.384;8.984;2022-08-20T00:17:35;16.00;99.90
9371;DHT22;4725;48.384;8.984;2022-08-20T00:20:04;15.90;99.90
9371;DHT22;4725;48.384;8.984;2022-08-20T00:22:32;15.80;99.90
9371;DHT22;4725;48.384;8.984;2022-08-20T00:25:00;15.80;99.90
9371;DHT22;4725;48.384;8.984;2022-08-20T00:27:27;15.70;99.90
9371;DHT22;4725;48.384;8.984;2022-08-20T00:29:54;15.70;99.90
9371;DHT22;4725;48.384;8.984;2022-08-20T00:32:21;15.70;99.90
9371;DHT22;4725;48.384;8.984;2022-08-20T00:34:49;15.70;99.90
9371;DHT22;4725;48.384;8.984;2022-08-20T00:37:15;15.70;99.90
9371;DHT22;4725;48.384;8.984;2022-08-20T00:39:42;15.70;99.90
9371;DHT22;4725;48.384;8.984;2022-08-20T00:42:11;15.60;99.90
9371;DHT22;4725;48.384;8.984;2022-08-20T00:44:44;15.60;99.90
9371;DHT22;4725;48.384;8.984;2022-08-20T00:47:11;15.50;99.90
9371;DHT22;4725;48.384;8.984;2022-08-20T00:49:38;15.60;99.90
9371;DHT22;4725;48.384;8.984;2022-08-20T00:52:08;15.60;99.90
9371;DHT22;4725;48.384;8.984;2022-08-20T00:54:38;15.60;99.90
9371;DHT22;4725;48.384;8.984;2022-08-20T00:57:11;15.60;99.90
9371;DHT22;4725;48.384;8.984;2022-08-20T00:59:41;15.60;99.90
9371;DHT22;4725;48.384;8.984;2022-08-20T01:02:12;15.70;99.90
9371;DHT22;4725;48.384;8.984;2022-08-20T01:04:40;15.70;99.90
9371;DHT22;4725;48.384;8.984;2022-08-20T01:07:09;15.70;99.90
9371;DHT22;4725;48.384;8.984;2022-08-20T01:09:37;15.70;99.90
9371;DHT22;4725;48.384;8.984;2022-08-20T01:12:05;15.70;99.90
9371;DHT22;4725;48.384;8.984;2022-08-20T01:14:33;15.70;99.90
9371;DHT22;4725;48.384;8.984;2022-08-20T01:17:09;15.70;99.90
9371;DHT22;4725;48.384;8.984;2022-08-20T01:19:43;15.70;99.90
9371;DHT22;4725;48.384;8.984;2022-08-20T01:22:13;15.80;99.90
9371;DHT22;4725;48.384;8.984;2022-08-20T01:25:05;15.90;99.90
9371;DHT22;4725;48.384;8.984;2022-08-20T01:27:35;15.90;99.90
9371;DHT22;4725;48.384;8.984;2022-08-20T01:30:05;15.90;99.90
9371;DHT22;4725;48.384;8.984;2022-08-20T01:32:32;15.90;99.90
9371;DHT22;4725;48.384;8.984;2022-08-20T01:34:59;15.90;99.90
9371;DHT22;4725;48.384;8.984;2022-08-20T01:37:26;15.90;99.90
9371;DHT22;4725;48.384;8.984;2022-08-20T01:39:53;16.00;99.90
9371;DHT22;4725;48.384;8.984;2022-08-20T01:42:23;16.10;99.90
9371;DHT22;4725;48.384;8.984;2022-08-20T01:44:54;16.10;99.90
9371;DHT22;4725;48.384;8.984;2022-08-20T01:47:24;16.10;99.90
9371;DHT22;4725;48.384;8.984;2022-08-20T01:49:57;16.10;99.90
9371;DHT22;4725;48.384;8.984;2022-08-20T01:52:30;16.20;99.90
9371;DHT22;4725;48.384;8.984;2022-08-20T01:54:59;16.20;99.90
9371;DHT22;4725;48.384;8.984;2022-08-20T01:57:26;16.20;99.90
9371;DHT22;4725;48.384;8.984;2022-08-20T01:59:55;16.20;99.90
9371;DHT22;4725;48.384;8.984;2022-08-20T02:02:22;16.20;99.90
9371;DHT22;4725;48.384;8.984;2022-08-20T02:04:49;16.20;99.90
9371;DHT22;4725;48.384;8.984;2022-08-20T02:07:19;16.20;99.90
9371;DHT22;4725;48.384;8.984;2022-08-20T02:09:47;16.20;99.90
9371;DHT22;4725;48.384;8.984;2022-08-20T02:12:15;16.30;99.90
9371;DHT22;4725;48.384;8.984;2022-08-20T02:14:46;16.30;99.90
9371;DHT22;4725;48.384;8.984;2022-08-20T02:17:14;16.30;99.90
9371;DHT22;4725;48.384;8.984;2022-08-20T02:19:50;16.40;99.90
9371;DHT22;4725;48.384;8.984;2022-08-20T02:22:21;15.70;99.90
9371;DHT22;4725;48.384;8.984;2022-08-20T02:24:49;16.40;99.90
9371;DHT22;4725;48.384;8.984;2022-08-20T02:27:16;16.40;99.90
9371;DHT22;4725;48.384;8.984;2022-08-20T02:29:43;16.40;99.90
9371;DHT22;4725;48.384;8.984;2022-08-20T02:32:11;16.40;99.90
9371;DHT22;4725;48.384;8.984;2022-08-20T02:34:40;16.40;99.90
9371;DHT22;4725;48.384;8.984;2022-08-20T02:37:07;16.40;99.90
9371;DHT22;4725;48.384;8.984;2022-08-20T02:39:34;16.40;99.90
9371;DHT22;4725;48.384;8.984;2022-08-20T02:42:01;16.40;99.90
9371;DHT22;4725;48.384;8.984;2022-08-20T02:44:29;16.50;99.90
9371;DHT22;4725;48.384;8.984;2022-08-20T02:46:56;16.40;99.90
9371;DHT22;4725;48.384;8.984;2022-08-20T02:49:24;16.40;99.90
9371;DHT22;4725;48.384;8.984;2022-08-20T02:51:52;16.50;99.90
9371;DHT22;4725;48.384;8.984;2022-08-20T02:54:19;16.50;99.90
9371;DHT22;4725;48.384;8.984;2022-08-20T02:56:46;16.40;99.90
9371;DHT22;4725;48.384;8.984;2022-08-20T02:59:13;16.40;99.90
9371;DHT22;4725;48.384;8.984;2022-08-20T03:01:40;16.40;99.90
9371;DHT22;4725;48.384;8.984;2022-08-20T03:04:07;16.40;99.90
9371;DHT22;4725;48.384;8.984;2022-08-20T03:06:34;16.30;99.90
9371;DHT22;4725;48.384;8.984;2022-08-20T03:09:02;16.30;99.90
9371;DHT22;4725;48.384;8.984;2022-08-20T03:11:32;16.20;99.90
9371;DHT22;4725;48.384;8.984;2022-08-20T03:13:59;16.20;99.90
9371;DHT22;4725;48.384;8.984;2022-08-20T03:16:26;16.20;99.90
9371;DHT22;4725;48.384;8.984;2022-08-20T03:18:53;16.20;99.90
9371;DHT22;4725;48.384;8.984;2022-08-20T03:21:20;16.20;99.90
9371;DHT22;4725;48.384;8.984;2022-08-20T03:23:47;16.10;99.90
9371;DHT22;4725;48.384;8.984;2022-08-20T03:26:15;16.10;99.90
9371;DHT22;4725;48.384;8.984;2022-08-20T03:28:42;16.20;99.90
9371;DHT22;4725;48.384;8.984;2022-08-20T03:31:10;16.10;99.90
9371;DHT22;4725;48.384;8.984;2022-08-20T03:33:40;16.10;99.90
9371;DHT22;4725;48.384;8.984;2022-08-20T03:36:07;16.10;99.90
9371;DHT22;4725;48.384;8.984;2022-08-20T03:38:34;16.10;99.90
9371;DHT22;4725;48.384;8.984;2022-08-20T03:41:02;16.00;99.90
9371;DHT22;4725;48.384;8.984;2022-08-20T03:43:30;15.90;99.90
9371;DHT22;4725;48.384;8.984;2022-08-20T03:45:57;15.90;99.90
9371;DHT22;4725;48.384;8.984;2022-08-20T03:48:25;15.90;99.90
9371;DHT22;4725;48.384;8.984;2022-08-20T03:50:52;15.80;99.90
9371;DHT22;4725;48.384;8.984;2022-08-20T03:53:20;15.80;99.90
9371;DHT22;4725;48.384;8.984;2022-08-20T03:55:48;15.70;99.90
9371;DHT22;4725;48.384;8.984;2022-08-20T03:58:20;15.60;99.90
9371;DHT22;4725;48.384;8.984;2022-08-20T04:00:49;15.70;99.90
9371;DHT22;4725;48.384;8.984;2022-08-20T04:03:17;15.70;99.90
9371;DHT22;4725;48.384;8.984;2022-08-20T04:05:45;15.80;99.90
9371;DHT22;4725;48.384;8.984;2022-08-20T04:08:14;15.80;99.90
9371;DHT22;4725;48.384;8.984;2022-08-20T04:10:42;15.80;99.90
9371;DHT22;4725;48.384;8.984;2022-08-20T04:13:11;15.80;99.90
9371;DHT22;4725;48.384;8.984;2022-08-20T04:15:38;15.80;99.90
9371;DHT22;4725;48.384;8.984;2022-08-20T04:18:08;15.80;99.90
9371;DHT22;4725;48.384;8.984;2022-08-20T04:20:36;15.80;99.90
9371;DHT22;4725;48.384;8.984;2022-08-20T04:23:04;15.80;99.90
9371;DHT22;4725;48.384;8.984;2022-08-20T04:25:32;15.80;99.90
9371;DHT22;4725;48.384;8.984;2022-08-20T04:28:02;15.90;99.90
9371;DHT22;4725;48.384;8.984;2022-08-20T04:30:30;15.90;99.90
9371;DHT22;4725;48.384;8.984;2022-08-20T04:32:58;15.90;99.90
9371;DHT22;4725;48.384;8.984;2022-08-20T04:35:27;15.90;99.90
9371;DHT22;4725;48.384;8.984;2022-08-20T04:37:58;16.00;99.90
9371;DHT22;4725;48.384;8.984;2022-08-20T04:40:26;16.00;99.90
9371;DHT22;4725;48.384;8.984;2022-08-20T04:43:10;16.00;99.90
9371;DHT22;4725;48.384;8.984;2022-08-20T04:45:38;16.00;99.90
9371;DHT22;4725;48.384;8.984;2022-08-20T04:48:06;16.00;99.90
9371;DHT22;4725;48.384;8.984;2022-08-20T04:50:36;16.00;99.90
9371;DHT22;4725;48.384;8.984;2022-08-20T04:53:05;16.10;99.90
9371;DHT22;4725;48.384;8.984;2022-08-20T04:55:34;16.20;99.90
9371;DHT22;4725;48.384;8.984;2022-08-20T04:58:03;16.20;99.90
9371;DHT22;4725;48.384;8.984;2022-08-20T05:00:30;16.30;99.90
9371;DHT22;4725;48.384;8.984;2022-08-20T05:02:57;16.30;99.90
9371;DHT22;4725;48.384;8.984;2022-08-20T05:05:24;16.40;99.90
9371;DHT22;4725;48.384;8.984;2022-08-20T05:07:54;16.40;99.90
9371;DHT22;4725;48.384;8.984;2022-08-20T05:10:22;16.50;99.90
9371;DHT22;4725;48.384;8.984;2022-08-20T05:12:49;16.60;99.90
9371;DHT22;4725;48.384;8.984;2022-08-20T05:15:16;16.70;99.90
9371;DHT22;4725;48.384;8.984;2022-08-20T05:17:43;16.70;99.90
9371;DHT22;4725;48.384;8.984;2022-08-20T05:20:14;16.80;99.90
9371;DHT22;4725;48.384;8.984;2022-08-20T05:22:42;16.80;99.90
9371;DHT22;4725;48.384;8.984;2022-08-20T05:25:11;16.90;99.90
9371;DHT22;4725;48.384;8.984;2022-08-20T05:27:38;16.90;99.90
9371;DHT22;4725;48.384;8.984;2022-08-20T05:30:09;16.90;99.90
9371;DHT22;4725;48.384;8.984;2022-08-20T05:32:37;17.00;99.90
9371;DHT22;4725;48.384;8.984;2022-08-20T05:35:07;17.00;99.90
9371;DHT22;4725;48.384;8.984;2022-08-20T05:37:35;17.00;99.90
9371;DHT22;4725;48.384;8.984;2022-08-20T05:40:08;17.10;99.90
9371;DHT22;4725;48.384;8.984;2022-08-20T05:42:37;17.10;99.90
9371;DHT22;4725;48.384;8.984;2022-08-20T05:45:05;17.20;99.90
9371;DHT22;4725;48.384;8.984;2022-08-20T05:47:33;17.20;99.90
9371;DHT22;4725;48.384;8.984;2022-08-20T05:50:03;17.30;99.90
9371;DHT22;4725;48.384;8.984;2022-08-20T05:52:30;17.30;99.90
9371;DHT22;4725;48.384;8.984;2022-08-20T05:54:57;17.30;99.90
9371;DHT22;4725;48.384;8.984;2022-08-20T05:57:24;17.30;99.90
9371;DHT22;4725;48.384;8.984;2022-08-20T05:59:52;17.20;99.90
9371;DHT22;4725;48.384;8.984;2022-08-20T06:02:19;17.30;99.90
9371;DHT22;4725;48.384;8.984;2022-08-20T06:05:04;17.30;99.90
9371;DHT22;4725;48.384;8.984;2022-08-20T06:07:31;17.30;99.90
9371;DHT22;4725;48.384;8.984;2022-08-20T06:09:59;17.30;99.90
9371;DHT22;4725;48.384;8.984;2022-08-20T06:12:26;17.40;99.90
9371;DHT22;4725;48.384;8.984;2022-08-20T06:14:55;17.40;99.90
9371;DHT22;4725;48.384;8.984;2022-08-20T06:17:22;17.40;99.90
9371;DHT22;4725;48.384;8.984;2022-08-20T06:19:49;17.40;99.90
9371;DHT22;4725;48.384;8.984;2022-08-20T06:22:16;17.40;99.90
9371;DHT22;4725;48.384;8.984;2022-08-20T06:24:43;17.40;99.90
9371;DHT22;4725;48.384;8.984;2022-08-20T06:27:13;17.40;99.90
9371;DHT22;4725;48.384;8.984;2022-08-20T06:29:40;17.30;99.90
9371;DHT22;4725;48.384;8.984;2022-08-20T06:32:09;17.40;99.90
9371;DHT22;4725;48.384;8.984;2022-08-20T06:34:36;17.50;99.90
9371;DHT22;4725;48.384;8.984;2022-08-20T06:37:13;17.50;99.90
9371;DHT22;4725;48.384;8.984;2022-08-20T06:39:40;17.50;99.90
9371;DHT22;4725;48.384;8.984;2022-08-20T06:42:07;17.60;99.90
9371;DHT22;4725;48.384;8.984;2022-08-20T06:44:34;17.60;99.90
9371;DHT22;4725;48.384;8.984;2022-08-20T06:47:01;17.70;99.90
9371;DHT22;4725;48.384;8.984;2022-08-20T06:49:33;17.70;99.90
9371;DHT22;4725;48.384;8.984;2022-08-20T06:52:01;17.70;99.90
9371;DHT22;4725;48.384;8.984;2022-08-20T06:54:28;17.70;99.90
9371;DHT22;4725;48.384;8.984;2022-08-20T06:56:55;17.70;99.90
9371;DHT22;4725;48.384;8.984;2022-08-20T06:59:22;17.90;99.90
9371;DHT22;4725;48.384;8.984;2022-08-20T07:01:49;18.00;99.90
9371;DHT22;4725;48.384;8.984;2022-08-20T07:04:16;19.30;99.90
9371;DHT22;4725;48.384;8.984;2022-08-20T07:06:44;18.20;99.90
9371;DHT22;4725;48.384;8.984;2022-08-20T07:09:11;18.20;99.90
9371;DHT22;4725;48.384;8.984;2022-08-20T07:11:38;18.10;99.90
9371;DHT22;4725;48.384;8.984;2022-08-20T07:14:05;18.10;99.90
9371;DHT22;4725;48.384;8.984;2022-08-20T07:16:32;18.20;99.90
9371;DHT22;4725;48.384;8.984;2022-08-20T07:18:59;18.30;99.90
9371;DHT22;4725;48.384;8.984;2022-08-20T07:21:25;18.40;99.90
9371;DHT22;4725;48.384;8.984;2022-08-20T07:23:54;18.40;99.90
9371;DHT22;4725;48.384;8.984;2022-08-20T07:26:21;18.50;99.90
9371;DHT22;4725;48.384;8.984;2022-08-20T07:28:48;18.50;99.90
9371;DHT22;4725;48.384;8.984;2022-08-20T07:31:15;18.50;99.90
9371;DHT22;4725;48.384;8.984;2022-08-20T07:34:00;18.50;99.90
9371;DHT22;4725;48.384;8.984;2022-08-20T07:38:55;18.60;99.90
9371;DHT22;4725;48.384;8.984;2022-08-20T07:41:22;18.70;99.90
9371;DHT22;4725;48.384;8.984;2022-08-20T07:43:49;18.70;99.90
9371;DHT22;4725;48.384;8.984;2022-08-20T07:46:18;18.80;99.90
9371;DHT22;4725;48.384;8.984;2022-08-20T07:48:47;18.90;99.90
9371;DHT22;4725;48.384;8.984;2022-08-20T07:51:16;19.00;99.90
9371;DHT22;4725;48.384;8.984;2022-08-20T07:53:44;19.00;99.90
9371;DHT22;4725;48.384;8.984;2022-08-20T07:56:15;19.20;99.90
9371;DHT22;4725;48.384;8.984;2022-08-20T07:58:46;19.20;99.90
9371;DHT22;4725;48.384;8.984;2022-08-20T08:01:14;19.50;99.90
9371;DHT22;4725;48.384;8.984;2022-08-20T08:03:41;19.50;99.90
9371;DHT22;4725;48.384;8.984;2022-08-20T08:06:08;19.70;99.90
9371;DHT22;4725;48.384;8.984;2022-08-20T08:08:38;19.90;99.90
9371;DHT22;4725;48.384;8.984;2022-08-20T08:11:06;20.30;99.90
9371;DHT22;4725;48.384;8.984;2022-08-20T08:13:37;20.30;99.90
9371;DHT22;4725;48.384;8.984;2022-08-20T08:16:07;20.20;99.90
9371;DHT22;4725;48.384;8.984;2022-08-20T08:18:37;20.30;99.90
9371;DHT22;4725;48.384;8.984;2022-08-20T08:21:07;20.70;99.90
9371;DHT22;4725;48.384;8.984;2022-08-20T08:23:37;20.70;99.90
9371;DHT22;4725;48.384;8.984;2022-08-20T08:26:05;20.70;99.90
9371;DHT22;4725;48.384;8.984;2022-08-20T08:28:31;20.80;99.90
9371;DHT22;4725;48.384;8.984;2022-08-20T08:31:00;21.00;99.90
9371;DHT22;4725;48.384;8.984;2022-08-20T08:33:29;21.00;99.90
9371;DHT22;4725;48.384;8.984;2022-08-20T08:35:58;21.00;99.90
9371;DHT22;4725;48.384;8.984;2022-08-20T08:38:27;20.90;99.90
9371;DHT22;4725;48.384;8.984;2022-08-20T08:40:56;21.00;99.90
9371;DHT22;4725;48.384;8.984;2022-08-20T08:43:25;21.00;99.90
9371;DHT22;4725;48.384;8.984;2022-08-20T08:45:59;20.90;99.90
9371;DHT22;4725;48.384;8.984;2022-08-20T08:48:32;21.20;99.90
9371;DHT22;4725;48.384;8.984;2022-08-20T08:51:03;20.80;99.90
9371;DHT22;4725;48.384;8.984;2022-08-20T08:53:36;20.80;99.90
9371;DHT22;4725;48.384;8.984;2022-08-20T08:56:05;20.90;99.90
9371;DHT22;4725;48.384;8.984;2022-08-20T08:58:32;21.00;99.90
9371;DHT22;4725;48.384;8.984;2022-08-20T09:01:02;21.20;99.90
9371;DHT22;4725;48.384;8.984;2022-08-20T09:03:32;21.20;99.90
9371;DHT22;4725;48.384;8.984;2022-08-20T09:06:03;21.80;99.90
9371;DHT22;4725;48.384;8.984;2022-08-20T09:08:32;22.20;99.90
9371;DHT22;4725;48.384;8.984;2022-08-20T09:11:02;22.50;99.90
9371;DHT22;4725;48.384;8.984;2022-08-20T09:13:29;22.50;99.90
9371;DHT22;4725;48.384;8.984;2022-08-20T09:15:57;22.20;99.90
9371;DHT22;4725;48.384;8.984;2022-08-20T09:18:24;22.10;99.90
9371;DHT22;4725;48.384;8.984;2022-08-20T09:20:52;22.30;99.90
9371;DHT22;4725;48.384;8.984;2022-08-20T09:23:19;22.70;99.90
9371;DHT22;4725;48.384;8.984;2022-08-20T09:25:46;22.70;99.90
9371;DHT22;4725;48.384;8.984;2022-08-20T09:28:13;23.40;99.90
9371;DHT22;4725;48.384;8.984;2022-08-20T09:30:40;23.70;99.90
9371;DHT22;4725;48.384;8.984;2022-08-20T09:33:07;23.90;99.90
9371;DHT22;4725;48.384;8.984;2022-08-20T09:35:34;23.60;99.90
9371;DHT22;4725;48.384;8.984;2022-08-20T09:38:03;22.90;99.90
9371;DHT22;4725;48.384;8.984;2022-08-20T09:40:30;22.00;99.90
9371;DHT22;4725;48.384;8.984;2022-08-20T09:42:57;21.10;99.90
9371;DHT22;4725;48.384;8.984;2022-08-20T09:45:24;20.50;99.90
9371;DHT22;4725;48.384;8.984;2022-08-20T09:47:51;19.60;99.90
9371;DHT22;4725;48.384;8.984;2022-08-20T09:50:18;18.70;99.90
9371;DHT22;4725;48.384;8.984;2022-08-20T09:52:47;18.00;99.90
9371;DHT22;4725;48.384;8.984;2022-08-20T09:55:19;17.80;99.90
9371;DHT22;4725;48.384;8.984;2022-08-20T09:57:47;17.80;99.90
9371;DHT22;4725;48.384;8.984;2022-08-20T10:00:16;17.60;99.90
9371;DHT22;4725;48.384;8.984;2022-08-20T10:02:43;17.60;99.90
9371;DHT22;4725;48.384;8.984;2022-08-20T10:05:10;17.60;99.90
9371;DHT22;4725;48.384;8.984;2022-08-20T10:07:38;17.60;99.90
9371;DHT22;4725;48.384;8.984;2022-08-20T10:10:08;17.60;99.90
9371;DHT22;4725;48.384;8.984;2022-08-20T10:12:36;17.90;99.90
9371;DHT22;4725;48.384;8.984;2022-08-20T10:15:07;18.00;99.90
9371;DHT22;4725;48.384;8.984;2022-08-20T10:17:36;18.10;99.90
9371;DHT22;4725;48.384;8.984;2022-08-20T10:20:04;18.30;99.90
9371;DHT22;4725;48.384;8.984;2022-08-20T10:22:32;18.40;99.90
9371;DHT22;4725;48.384;8.984;2022-08-20T10:24:59;18.50;99.90
9371;DHT22;4725;48.384;8.984;2022-08-20T10:27:26;18.60;99.90
9371;DHT22;4725;48.384;8.984;2022-08-20T10:29:54;19.10;99.90
9371;DHT22;4725;48.384;8.984;2022-08-20T10:32:21;20.20;99.90
9371;DHT22;4725;48.384;8.984;2022-08-20T10:34:48;20.80;99.90
9371;DHT22;4725;48.384;8.984;2022-08-20T10:37:16;21.30;99.90
9371;DHT22;4725;48.384;8.984;2022-08-20T10:39:44;21.90;99.90
9371;DHT22;4725;48.384;8.984;2022-08-20T10:42:12;21.70;99.90
9371;DHT22;4725;48.384;8.984;2022-08-20T10:44:39;22.00;99.90
9371;DHT22;4725;48.384;8.984;2022-08-20T10:47:20;22.50;99.90
9371;DHT22;4725;48.384;8.984;2022-08-20T10:49:48;22.80;99.90
9371;DHT22;4725;48.384;8.984;2022-08-20T10:52:15;22.10;99.90
9371;DHT22;4725;48.384;8.984;2022-08-20T10:54:43;22.00;99.90
9371;DHT22;4725;48.384;8.984;2022-08-20T10:57:13;21.90;99.90
9371;DHT22;4725;48.384;8.984;2022-08-20T10:59:41;21.60;99.90
9371;DHT22;4725;48.384;8.984;2022-08-20T11:02:09;21.40;99.90
9371;DHT22;4725;48.384;8.984;2022-08-20T11:04:38;21.40;99.90
9371;DHT22;4725;48.384;8.984;2022-08-20T11:07:13;21.30;99.90
9371;DHT22;4725;48.384;8.984;2022-08-20T11:09:41;21.40;99.90
9371;DHT22;4725;48.384;8.984;2022-08-20T11:12:09;21.40;99.90
9371;DHT22;4725;48.384;8.984;2022-08-20T11:14:36;21.40;99.90
9371;DHT22;4725;48.384;8.984;2022-08-20T11:17:03;21.30;99.90
9371;DHT22;4725;48.384;8.984;2022-08-20T11:19:30;21.00;99.90
9371;DHT22;4725;48.384;8.984;2022-08-20T11:21:59;20.10;99.90
9371;DHT22;4725;48.384;8.984;2022-08-20T11:24:26;19.90;99.90
9371;DHT22;4725;48.384;8.984;2022-08-20T11:26:52;19.70;99.90
9371;DHT22;4725;48.384;8.984;2022-08-20T11:29:19;19.50;99.90
9371;DHT22;4725;48.384;8.984;2022-08-20T11:31:49;19.20;99.90
9371;DHT22;4725;48.384;8.984;2022-08-20T11:34:16;19.10;99.90
9371;DHT22;4725;48.384;8.984;2022-08-20T11:36:44;18.90;99.90
9371;DHT22;4725;48.384;8.984;2022-08-20T11:39:13;18.60;99.90
9371;DHT22;4725;48.384;8.984;2022-08-20T11:41:41;18.20;99.90
9371;DHT22;4725;48.384;8.984;2022-08-20T11:44:08;18.10;99.90
9371;DHT22;4725;48.384;8.984;2022-08-20T11:46:35;18.00;99.90
9371;DHT22;4725;48.384;8.984;2022-08-20T11:49:03;17.90;99.90
9371;DHT22;4725;48.384;8.984;2022-08-20T11:51:30;18.00;99.90
9371;DHT22;4725;48.384;8.984;2022-08-20T11:53:57;18.00;99.90
9371;DHT22;4725;48.384;8.984;2022-08-20T11:56:25;17.90;99.90
9371;DHT22;4725;48.384;8.984;2022-08-20T11:58:52;17.80;99.90
9371;DHT22;4725;48.384;8.984;2022-08-20T12:01:19;17.70;99.90
9371;DHT22;4725;48.384;8.984;2022-08-20T12:03:46;17.70;99.90
9371;DHT22;4725;48.384;8.984;2022-08-20T12:06:13;17.50;99.90
9371;DHT22;4725;48.384;8.984;2022-08-20T12:08:40;17.50;99.90
9371;DHT22;4725;48.384;8.984;2022-08-20T12:11:07;17.80;99.90
9371;DHT22;4725;48.384;8.984;2022-08-20T12:13:36;17.90;99.90
9371;DHT22;4725;48.384;8.984;2022-08-20T12:16:04;18.00;99.90
9371;DHT22;4725;48.384;8.984;2022-08-20T12:18:31;18.10;99.90
9371;DHT22;4725;48.384;8.984;2022-08-20T12:20:58;18.20;99.90
9371;DHT22;4725;48.384;8.984;2022-08-20T12:23:25;18.20;99.90
9371;DHT22;4725;48.384;8.984;2022-08-20T12:25:52;18.10;99.90
9371;DHT22;4725;48.384;8.984;2022-08-20T12:28:19;17.90;99.90
9371;DHT22;4725;48.384;8.984;2022-08-20T12:30:48;17.80;99.90
9371;DHT22;4725;48.384;8.984;2022-08-20T12:33:15;17.80;99.90
9371;DHT22;4725;48.384;8.984;2022-08-20T12:35:43;17.70;99.90
9371;DHT22;4725;48.384;8.984;2022-08-20T12:38:10;17.50;99.90
9371;DHT22;4725;48.384;8.984;2022-08-20T12:40:37;17.80;99.90
9371;DHT22;4725;48.384;8.984;2022-08-20T12:43:04;17.70;99.90
9371;DHT22;4725;48.384;8.984;2022-08-20T12:45:33;17.90;99.90
9371;DHT22;4725;48.384;8.984;2022-08-20T12:48:06;18.20;99.90
9371;DHT22;4725;48.384;8.984;2022-08-20T12:50:35;18.20;99.90
9371;DHT22;4725;48.384;8.984;2022-08-20T12:53:04;18.40;99.90
9371;DHT22;4725;48.384;8.984;2022-08-20T12:55:33;18.70;99.90
9371;DHT22;4725;48.384;8.984;2022-08-20T12:58:02;18.90;99.90
9371;DHT22;4725;48.384;8.984;2022-08-20T13:00:31;19.00;99.90
9371;DHT22;4725;48.384;8.984;2022-08-20T13:03:04;19.10;99.90
9371;DHT22;4725;48.384;8.984;2022-08-20T13:05:33;18.90;99.90
9371;DHT22;4725;48.384;8.984;2022-08-20T13:08:02;18.90;99.90
9371;DHT22;4725;48.384;8.984;2022-08-20T13:10:33;19.00;99.90
9371;DHT22;4725;48.384;8.984;2022-08-20T13:13:01;19.20;99.90
9371;DHT22;4725;48.384;8.984;2022-08-20T13:15:29;19.20;99.90
9371;DHT22;4725;48.384;8.984;2022-08-20T13:17:58;19.10;99.90
9371;DHT22;4725;48.384;8.984;2022-08-20T13:20:28;18.90;99.90
9371;DHT22;4725;48.384;8.984;2022-08-20T13:22:55;18.90;99.90
9371;DHT22;4725;48.384;8.984;2022-08-20T13:25:23;19.00;99.90
9371;DHT22;4725;48.384;8.984;2022-08-20T13:27:54;19.00;99.90
9371;DHT22;4725;48.384;8.984;2022-08-20T13:30:22;19.00;99.90
9371;DHT22;4725;48.384;8.984;2022-08-20T13:32:49;19.10;99.90
9371;DHT22;4725;48.384;8.984;2022-08-20T13:35:16;19.40;99.90
9371;DHT22;4725;48.384;8.984;2022-08-20T13:37:47;20.00;99.90
9371;DHT22;4725;48.384;8.984;2022-08-20T13:40:15;20.70;99.90
9371;DHT22;4725;48.384;8.984;2022-08-20T13:42:42;20.80;99.90
9371;DHT22;4725;48.384;8.984;2022-08-20T13:45:09;21.20;99.90
9371;DHT22;4725;48.384;8.984;2022-08-20T13:47:37;21.90;99.90
9371;DHT22;4725;48.384;8.984;2022-08-20T13:50:07;21.90;99.90
9371;DHT22;4725;48.384;8.984;2022-08-20T13:52:36;22.60;99.90
9371;DHT22;4725;48.384;8.984;2022-08-20T13:55:06;21.90;99.90
9371;DHT22;4725;48.384;8.984;2022-08-20T13:57:34;21.40;99.90
9371;DHT22;4725;48.384;8.984;2022-08-20T14:00:03;21.00;99.90
9371;DHT22;4725;48.384;8.984;2022-08-20T14:02:31;20.20;99.90
9371;DHT22;4725;48.384;8.984;2022-08-20T14:04:58;20.30;99.90
9371;DHT22;4725;48.384;8.984;2022-08-20T14:07:27;20.10;99.90
9371;DHT22;4725;48.384;8.984;2022-08-20T14:09:57;20.20;99.90
9371;DHT22;4725;48.384;8.984;2022-08-20T14:12:26;20.30;99.90
9371;DHT22;4725;48.384;8.984;2022-08-20T14:14:54;20.50;99.90
9371;DHT22;4725;48.384;8.984;2022-08-20T14:17:23;20.40;99.90
9371;DHT22;4725;48.384;8.984;2022-08-20T14:19:53;20.70;99.90
9371;DHT22;4725;48.384;8.984;2022-08-20T14:22:21;21.10;99.90
9371;DHT22;4725;48.384;8.984;2022-08-20T14:24:49;20.90;99.90
9371;DHT22;4725;48.384;8.984;2022-08-20T14:27:18;21.20;99.90
9371;DHT22;4725;48.384;8.984;2022-08-20T14:29:48;21.10;99.90
9371;DHT22;4725;48.384;8.984;2022-08-20T14:32:16;21.20;99.90
9371;DHT22;4725;48.384;8.984;2022-08-20T14:34:44;21.30;99.90
9371;DHT22;4725;48.384;8.984;2022-08-20T14:37:15;21.60;99.90
9371;DHT22;4725;48.384;8.984;2022-08-20T14:39:44;21.90;99.90
9371;DHT22;4725;48.384;8.984;2022-08-20T14:42:12;22.10;99.90
9371;DHT22;4725;48.384;8.984;2022-08-20T14:44:40;22.30;99.90
9371;DHT22;4725;48.384;8.984;2022-08-20T14:47:16;23.00;99.90
9371;DHT22;4725;48.384;8.984;2022-08-20T14:49:46;23.10;99.90
9371;DHT22;4725;48.384;8.984;2022-08-20T14:52:14;23.80;99.90
9371;DHT22;4725;48.384;8.984;2022-08-20T14:54:44;24.60;99.90
9371;DHT22;4725;48.384;8.984;2022-08-20T14:57:12;24.90;99.90
9371;DHT22;4725;48.384;8.984;2022-08-20T14:59:40;24.90;99.90
9371;DHT22;4725;48.384;8.984;2022-08-20T15:02:08;24.40;99.90
9371;DHT22;4725;48.384;8.984;2022-08-20T15:04:38;24.00;99.90
9371;DHT22;4725;48.384;8.984;2022-08-20T15:07:10;24.00;99.90
9371;DHT22;4725;48.384;8.984;2022-08-20T15:09:40;24.60;99.90
9371;DHT22;4725;48.384;8.984;2022-08-20T15:12:07;25.60;99.90
9371;DHT22;4725;48.384;8.984;2022-08-20T15:14:34;25.10;99.90
9371;DHT22;4725;48.384;8.984;2022-08-20T15:17:01;24.50;99.90
9371;DHT22;4725;48.384;8.984;2022-08-20T15:19:28;25.50;99.90
9371;DHT22;4725;48.384;8.984;2022-08-20T15:21:57;26.40;99.90
9371;DHT22;4725;48.384;8.984;2022-08-20T15:24:25;26.50;99.90
9371;DHT22;4725;48.384;8.984;2022-08-20T15:26:52;26.80;99.90
9371;DHT22;4725;48.384;8.984;2022-08-20T15:29:19;27.10;99.90
9371;DHT22;4725;48.384;8.984;2022-08-20T15:31:46;26.30;99.90
9371;DHT22;4725;48.384;8.984;2022-08-20T15:34:13;26.50;99.90
9371;DHT22;4725;48.384;8.984;2022-08-20T15:36:41;26.90;99.90
9371;DHT22;4725;48.384;8.984;2022-08-20T15:39:11;27.40;99.90
9371;DHT22;4725;48.384;8.984;2022-08-20T15:41:40;28.60;99.90
9371;DHT22;4725;48.384;8.984;2022-08-20T15:44:08;28.40;99.90
9371;DHT22;4725;48.384;8.984;2022-08-20T15:46:36;27.70;99.90
9371;DHT22;4725;48.384;8.984;2022-08-20T15:49:05;26.80;99.90
9371;DHT22;4725;48.384;8.984;2022-08-20T15:51:39;25.10;99.90
9371;DHT22;4725;48.384;8.984;2022-08-20T15:54:15;25.00;99.90
9371;DHT22;4725;48.384;8.984;2022-08-20T15:56:50;24.40;99.90
9371;DHT22;4725;48.384;8.984;2022-08-20T15:59:34;23.80;99.90
9371;DHT22;4725;48.384;8.984;2022-08-20T16:02:13;22.90;99.90
9371;DHT22;4725;48.384;8.984;2022-08-20T16:05:07;22.80;99.90
9371;DHT22;4725;48.384;8.984;2022-08-20T16:07:42;22.50;99.90
9371;DHT22;4725;48.384;8.984;2022-08-20T16:10:24;23.20;99.90
9371;DHT22;4725;48.384;8.984;2022-08-20T16:12:55;23.60;99.90